createdAt,value
2019-02-28T00:01:43.150Z,5.77
2019-02-28T00:04:13.851Z,5.60
2019-02-28T00:06:45.150Z,5.90
2019-02-28T00:09:16.744Z,5.20
2019-02-28T00:11:47.002Z,5.07
2019-02-28T00:14:17.763Z,5.03
2019-02-28T00:16:48.443Z,5.13
2019-02-28T00:19:21.040Z,4.57
2019-02-28T00:21:53.451Z,5.33
2019-02-28T00:24:27.187Z,4.97
2019-02-28T00:26:57.152Z,4.40
2019-02-28T00:29:27.623Z,4.83
2019-02-28T00:31:58.125Z,5.30
2019-02-28T00:34:28.771Z,5.27
2019-02-28T00:36:59.088Z,5.33
2019-02-28T00:39:31.399Z,4.90
2019-02-28T00:42:03.769Z,4.77
2019-02-28T00:44:34.047Z,4.70
2019-02-28T00:47:09.048Z,4.63
2019-02-28T00:49:39.422Z,4.83
2019-02-28T00:52:09.972Z,4.17
2019-02-28T00:54:44.361Z,5.03
2019-02-28T00:57:16.031Z,4.27
2019-02-28T00:59:46.215Z,4.27
2019-02-28T01:02:18.675Z,3.73
2019-02-28T01:04:49.067Z,4.17
2019-02-28T01:07:20.826Z,4.33
2019-02-28T01:09:51.847Z,3.70
2019-02-28T01:12:22.110Z,3.67
2019-02-28T01:14:52.641Z,4.47
2019-02-28T01:17:24.083Z,4.50
2019-02-28T01:19:54.748Z,4.40
2019-02-28T01:22:26.745Z,3.90
2019-02-28T01:24:56.812Z,4.43
2019-02-28T01:27:28.198Z,4.63
2019-02-28T01:29:58.322Z,4.60
2019-02-28T01:32:28.325Z,4.50
2019-02-28T01:34:58.695Z,4.07
2019-02-28T01:37:31.684Z,4.40
2019-02-28T01:40:04.426Z,4.50
2019-02-28T01:42:35.031Z,5.17
2019-02-28T01:45:07.050Z,4.97
2019-02-28T01:47:37.988Z,4.90
2019-02-28T01:50:09.118Z,5.50
2019-02-28T01:52:44.372Z,4.37
2019-02-28T01:55:09.759Z,4.90
2019-02-28T01:57:44.110Z,4.80
2019-02-28T02:00:14.360Z,4.70
2019-02-28T02:02:44.590Z,4.77
2019-02-28T02:05:16.866Z,4.80
2019-02-28T02:07:46.427Z,4.17
2019-02-28T02:10:21.670Z,4.60
2019-02-28T02:12:53.007Z,4.27
2019-02-28T02:15:23.621Z,4.50
2019-02-28T02:17:54.676Z,4.80
2019-02-28T02:20:26.277Z,5.57
2019-02-28T02:22:57.191Z,5.70
2019-02-28T02:25:27.439Z,4.80
2019-02-28T02:27:58.644Z,4.53
2019-02-28T02:30:28.944Z,4.77
2019-02-28T02:33:00.000Z,5.17
2019-02-28T02:35:30.336Z,5.13
2019-02-28T02:38:05.332Z,4.90
2019-02-28T02:40:35.896Z,5.80
2019-02-28T02:43:06.151Z,5.00
2019-02-28T02:45:38.542Z,5.10
2019-02-28T02:48:06.880Z,5.40
2019-02-28T02:50:37.365Z,5.70
2019-02-28T02:53:08.095Z,4.67
2019-02-28T02:55:37.941Z,4.37
2019-02-28T02:58:07.796Z,5.50
2019-02-28T03:00:38.090Z,5.20
2019-02-28T03:03:08.199Z,5.50
2019-02-28T03:05:38.451Z,5.70
2019-02-28T03:08:09.208Z,5.30
2019-02-28T03:10:39.856Z,4.97
2019-02-28T03:13:10.435Z,5.73
2019-02-28T03:15:40.846Z,6.20
2019-02-28T03:18:10.834Z,5.60
2019-02-28T03:20:42.312Z,5.50
2019-02-28T03:23:12.713Z,4.77
2019-02-28T03:25:43.011Z,5.83
2019-02-28T03:28:14.126Z,5.67
2019-02-28T03:30:44.310Z,5.10
2019-02-28T03:33:23.814Z,5.23
2019-02-28T03:35:45.956Z,5.53
2019-02-28T03:38:15.785Z,5.27
2019-02-28T03:40:45.709Z,5.43
2019-02-28T03:43:15.522Z,5.43
2019-02-28T03:45:45.357Z,6.27
2019-02-28T03:48:15.467Z,6.20
2019-02-28T03:50:45.449Z,6.03
2019-02-28T03:53:19.411Z,6.40
2019-02-28T03:55:46.911Z,6.70
2019-02-28T03:58:16.846Z,6.53
2019-02-28T04:00:46.817Z,6.50
2019-02-28T04:03:16.798Z,7.10
2019-02-28T04:05:46.950Z,7.10
2019-02-28T04:08:17.323Z,7.10
2019-02-28T04:10:47.485Z,7.23
2019-02-28T04:13:19.143Z,6.40
2019-02-28T04:16:07.436Z,6.20
2019-02-28T04:18:21.184Z,7.70
2019-02-28T04:20:51.450Z,7.90
2019-02-28T04:23:21.709Z,7.40
2019-02-28T04:25:51.933Z,7.33
2019-02-28T04:28:22.042Z,7.87
2019-02-28T04:30:51.919Z,6.60
2019-02-28T04:33:21.899Z,7.47
2019-02-28T04:35:52.409Z,7.40
2019-02-28T04:38:22.711Z,7.53
2019-02-28T04:40:52.926Z,6.70
2019-02-28T04:43:23.631Z,7.07
2019-02-28T04:45:53.461Z,7.23
2019-02-28T04:48:23.657Z,7.70
2019-02-28T04:50:53.656Z,6.83
2019-02-28T04:53:23.782Z,7.47
2019-02-28T04:55:53.709Z,7.83
2019-02-28T04:58:25.257Z,7.80
2019-02-28T05:00:55.148Z,7.70
2019-02-28T05:03:27.922Z,8.30
2019-02-28T05:05:56.693Z,7.80
2019-02-28T05:08:26.705Z,7.50
2019-02-28T05:11:12.027Z,8.50
2019-02-28T05:13:52.826Z,7.80
2019-02-28T05:16:22.995Z,8.00
2019-02-28T05:18:53.383Z,8.57
2019-02-28T05:21:23.731Z,8.40
2019-02-28T05:23:54.257Z,7.87
2019-02-28T05:26:26.291Z,8.33
2019-02-28T05:28:56.357Z,8.70
2019-02-28T05:31:27.072Z,8.47
2019-02-28T05:34:00.966Z,8.57
2019-02-28T05:36:31.155Z,7.83
2019-02-28T05:39:01.132Z,8.33
2019-02-28T05:41:31.468Z,7.93
2019-02-28T05:44:05.863Z,7.83
2019-02-28T05:46:35.712Z,8.63
2019-02-28T05:49:08.717Z,8.13
2019-02-28T05:51:38.304Z,9.50
2019-02-28T05:54:08.543Z,8.40
2019-02-28T05:56:38.447Z,7.53
2019-02-28T05:59:08.348Z,7.53
2019-02-28T06:01:38.576Z,8.30
2019-02-28T06:04:08.636Z,9.40
2019-02-28T06:06:38.597Z,9.30
2019-02-28T06:09:10.413Z,8.30
2019-02-28T06:11:41.333Z,8.40
2019-02-28T06:14:11.396Z,8.10
2019-02-28T06:16:46.471Z,8.77
2019-02-28T06:19:13.755Z,8.90
2019-02-28T06:21:43.870Z,8.83
2019-02-28T06:24:14.246Z,8.80
2019-02-28T06:26:44.571Z,9.37
2019-02-28T06:29:18.869Z,8.33
2019-02-28T06:31:56.172Z,8.50
2019-02-28T06:34:26.209Z,8.07
2019-02-28T06:36:54.925Z,8.13
2019-02-28T06:39:27.591Z,8.23
2019-02-28T06:41:57.929Z,8.87
2019-02-28T06:44:28.654Z,7.97
2019-02-28T06:47:02.563Z,8.73
2019-02-28T06:49:33.655Z,8.30
2019-02-28T06:52:07.375Z,7.90
2019-02-28T06:54:39.858Z,8.03
2019-02-28T06:57:09.212Z,9.50
2019-02-28T06:59:39.749Z,8.87
2019-02-28T07:02:10.127Z,8.60
2019-02-28T07:04:41.513Z,9.30
2019-02-28T07:07:18.941Z,9.50
2019-02-28T07:09:49.627Z,9.37
2019-02-28T07:12:29.172Z,8.80
2019-02-28T07:14:57.460Z,9.63
2019-02-28T07:17:28.970Z,9.93
2019-02-28T07:20:02.029Z,9.90
2019-02-28T07:22:32.234Z,8.90
2019-02-28T07:25:03.883Z,10.00
2019-02-28T07:27:39.525Z,9.17
2019-02-28T07:30:19.110Z,9.90
2019-02-28T07:32:50.600Z,8.73
2019-02-28T07:35:21.596Z,9.50
2019-02-28T07:38:05.430Z,9.50
2019-02-28T07:40:38.344Z,8.73
2019-02-28T07:43:12.043Z,9.53
2019-02-28T07:45:41.010Z,9.60
2019-02-28T07:48:11.234Z,10.77
2019-02-28T07:50:43.494Z,10.00
2019-02-28T07:53:14.269Z,10.60
2019-02-28T07:55:44.457Z,10.07
2019-02-28T07:58:14.591Z,10.60
2019-02-28T08:00:44.490Z,12.00
2019-02-28T08:03:14.685Z,10.60
2019-02-28T08:05:44.911Z,11.90
2019-02-28T08:08:15.965Z,11.70
2019-02-28T08:10:47.969Z,11.93
2019-02-28T08:13:19.392Z,12.00
2019-02-28T08:15:49.981Z,11.60
2019-02-28T08:18:19.944Z,12.10
2019-02-28T08:20:49.928Z,13.63
2019-02-28T08:23:21.092Z,12.83
2019-02-28T08:25:51.391Z,14.63
2019-02-28T08:28:22.617Z,14.63
2019-02-28T08:30:55.914Z,14.70
2019-02-28T08:33:28.076Z,14.83
2019-02-28T08:35:58.502Z,14.50
2019-02-28T08:38:30.046Z,16.60
2019-02-28T08:41:06.310Z,14.73
2019-02-28T08:43:35.735Z,16.40
2019-02-28T08:46:10.759Z,16.43
2019-02-28T08:48:40.747Z,17.53
2019-02-28T08:51:11.194Z,16.33
2019-02-28T08:53:41.146Z,15.80
2019-02-28T08:56:14.135Z,15.73
2019-02-28T08:58:43.145Z,16.83
2019-02-28T09:01:15.081Z,17.93
2019-02-28T09:03:45.563Z,18.57
2019-02-28T09:06:15.538Z,19.50
2019-02-28T09:08:46.461Z,18.47
2019-02-28T09:11:20.776Z,19.10
2019-02-28T09:13:53.122Z,21.10
2019-02-28T09:16:23.466Z,19.40
2019-02-28T09:18:57.456Z,20.70
2019-02-28T09:21:28.822Z,22.23
2019-02-28T09:23:58.970Z,23.03
2019-02-28T09:26:31.244Z,23.20
2019-02-28T09:29:01.346Z,22.17
2019-02-28T09:31:38.697Z,24.33
2019-02-28T09:34:09.288Z,24.10
2019-02-28T09:36:41.544Z,24.00
2019-02-28T09:39:11.472Z,24.50
2019-02-28T09:41:41.868Z,23.30
2019-02-28T09:44:12.555Z,25.37
2019-02-28T09:46:42.972Z,25.03
2019-02-28T09:49:14.450Z,26.40
2019-02-28T09:51:45.290Z,26.47
2019-02-28T09:54:15.182Z,27.00
2019-02-28T09:56:50.278Z,27.07
2019-02-28T09:59:20.432Z,27.23
2019-02-28T10:02:01.191Z,27.10
2019-02-28T10:04:27.434Z,26.20
2019-02-28T10:06:57.377Z,26.47
2019-02-28T10:09:27.638Z,26.97
2019-02-28T10:11:57.761Z,26.70
2019-02-28T10:14:28.992Z,26.33
2019-02-28T10:16:59.814Z,26.87
2019-02-28T10:19:29.721Z,27.23
2019-02-28T10:22:01.177Z,26.97
2019-02-28T10:24:32.225Z,27.13
2019-02-28T10:27:03.582Z,27.77
2019-02-28T10:29:33.646Z,24.70
2019-02-28T10:32:06.142Z,25.20
2019-02-28T10:34:36.841Z,25.87
2019-02-28T10:37:10.916Z,25.67
2019-02-28T10:39:43.126Z,24.53
2019-02-28T10:42:13.759Z,27.43
2019-02-28T10:44:44.067Z,23.70
2019-02-28T10:47:17.021Z,25.30
2019-02-28T10:49:47.432Z,26.60
2019-02-28T10:52:17.420Z,26.90
2019-02-28T10:54:48.677Z,27.80
2019-02-28T10:57:19.581Z,26.77
2019-02-28T10:59:49.685Z,25.83
2019-02-28T11:02:20.477Z,25.73
2019-02-28T11:04:50.613Z,25.80
2019-02-28T11:07:21.430Z,26.80
2019-02-28T11:09:55.640Z,25.10
2019-02-28T11:12:25.035Z,26.03
2019-02-28T11:14:56.010Z,25.37
2019-02-28T11:17:26.062Z,25.63
2019-02-28T11:19:56.178Z,25.93
2019-02-28T11:22:26.369Z,27.30
2019-02-28T11:25:00.487Z,26.83
2019-02-28T11:27:28.667Z,28.07
2019-02-28T11:29:58.871Z,27.00
2019-02-28T11:32:29.321Z,28.37
2019-02-28T11:35:03.101Z,25.90
2019-02-28T11:37:34.941Z,27.30
2019-02-28T11:40:08.440Z,25.77
2019-02-28T11:42:38.099Z,26.80
2019-02-28T11:45:12.911Z,27.03
2019-02-28T11:47:43.451Z,25.47
2019-02-28T11:50:15.166Z,25.80
2019-02-28T11:52:45.269Z,27.13
2019-02-28T11:55:16.863Z,27.47
2019-02-28T11:57:47.240Z,26.83
2019-02-28T12:00:27.787Z,26.27
2019-02-28T12:03:00.825Z,27.10
2019-02-28T12:05:32.197Z,26.07
2019-02-28T12:08:02.789Z,26.27
2019-02-28T12:10:35.729Z,26.90
2019-02-28T12:13:06.854Z,28.57
2019-02-28T12:15:38.991Z,29.90
2019-02-28T12:18:09.427Z,27.33
2019-02-28T12:20:39.596Z,26.17
2019-02-28T12:23:10.003Z,25.83
2019-02-28T12:25:42.788Z,27.50
2019-02-28T12:28:12.742Z,27.30
2019-02-28T12:30:43.376Z,26.47
2019-02-28T12:33:15.352Z,27.20
2019-02-28T12:35:45.822Z,27.70
2019-02-28T12:38:16.237Z,28.00
2019-02-28T12:40:49.327Z,25.97
2019-02-28T12:43:18.542Z,29.07
2019-02-28T12:45:48.689Z,26.00
2019-02-28T12:48:18.804Z,27.37
2019-02-28T12:50:49.528Z,25.37
2019-02-28T12:53:24.513Z,24.90
2019-02-28T12:55:53.509Z,25.73
2019-02-28T12:58:25.078Z,26.90
2019-02-28T13:00:56.288Z,26.17
2019-02-28T13:03:27.256Z,26.17
2019-02-28T13:05:57.257Z,28.30
2019-02-28T13:08:32.212Z,26.67
2019-02-28T13:11:04.656Z,26.87
2019-02-28T13:13:35.258Z,26.07
2019-02-28T13:16:05.593Z,25.43
2019-02-28T13:18:36.348Z,26.97
2019-02-28T13:21:10.644Z,25.77
2019-02-28T13:23:42.132Z,27.03
2019-02-28T13:26:13.455Z,27.87
2019-02-28T13:28:44.258Z,27.83
2019-02-28T13:31:16.813Z,26.73
2019-02-28T13:33:52.669Z,26.87
2019-02-28T13:36:21.624Z,26.47
2019-02-28T13:38:54.720Z,19.87
2019-02-28T13:41:26.601Z,26.70
2019-02-28T13:43:59.295Z,26.43
2019-02-28T13:46:33.753Z,25.30
2019-02-28T13:49:03.513Z,26.43
2019-02-28T13:51:40.363Z,27.67
2019-02-28T13:54:07.323Z,27.03
2019-02-28T13:56:37.979Z,27.67
2019-02-28T13:59:09.100Z,26.70
2019-02-28T14:01:39.370Z,27.50
2019-02-28T14:04:09.764Z,24.73
2019-02-28T14:06:40.797Z,27.87
2019-02-28T14:09:11.569Z,26.50
2019-02-28T14:11:45.117Z,28.07
2019-02-28T14:14:15.481Z,28.03
2019-02-28T14:16:51.253Z,28.37
2019-02-28T14:19:22.320Z,25.27
2019-02-28T14:21:53.704Z,28.90
2019-02-28T14:24:24.211Z,28.63
2019-02-28T14:26:54.665Z,28.00
2019-02-28T14:29:24.993Z,27.70
2019-02-28T14:31:55.231Z,26.40
2019-02-28T14:34:28.784Z,26.93
2019-02-28T14:37:00.053Z,30.37
2019-02-28T14:39:30.179Z,25.53
2019-02-28T14:42:03.151Z,29.13
2019-02-28T14:44:39.560Z,28.57
2019-02-28T14:47:11.038Z,26.80
2019-02-28T14:49:43.838Z,28.27
2019-02-28T14:52:16.132Z,27.57
2019-02-28T14:54:47.125Z,26.70
2019-02-28T14:57:24.012Z,27.63
2019-02-28T14:59:55.243Z,25.33
2019-02-28T15:02:28.812Z,27.77
2019-02-28T15:05:23.394Z,27.27
2019-02-28T15:07:55.022Z,25.17
2019-02-28T15:10:27.922Z,25.70
2019-02-28T15:13:07.640Z,26.20
2019-02-28T15:15:39.747Z,26.53
2019-02-28T15:18:14.573Z,25.40
2019-02-28T15:23:15.937Z,25.57
2019-02-28T15:25:53.745Z,25.03
2019-02-28T15:28:24.966Z,25.83
2019-02-28T15:30:56.737Z,24.50
2019-02-28T15:33:31.906Z,26.73
2019-02-28T15:36:07.861Z,24.70
2019-02-28T15:38:41.936Z,26.23
2019-02-28T15:41:13.771Z,25.40
2019-02-28T15:43:47.140Z,26.10
2019-02-28T15:46:17.864Z,25.73
2019-02-28T15:48:57.211Z,25.97
2019-02-28T15:51:36.245Z,26.13
2019-02-28T15:54:11.954Z,26.33
2019-02-28T15:57:02.084Z,25.40
2019-02-28T15:59:33.015Z,25.40
2019-02-28T16:02:13.709Z,26.20
2019-02-28T16:04:53.761Z,24.93
2019-02-28T16:07:24.793Z,25.63
2019-02-28T16:09:57.122Z,22.83
2019-02-28T16:12:30.114Z,23.03
2019-02-28T16:15:08.623Z,22.60
2019-02-28T16:17:37.323Z,19.97
2019-02-28T16:20:09.832Z,20.23
2019-02-28T16:22:43.488Z,20.40
2019-02-28T16:25:23.129Z,19.60
2019-02-28T16:27:54.082Z,19.53
2019-02-28T16:30:28.779Z,18.53
2019-02-28T16:33:02.838Z,20.03
2019-02-28T16:35:37.723Z,18.47
2019-02-28T16:38:09.841Z,17.67
2019-02-28T16:40:47.984Z,18.43
2019-02-28T16:43:20.930Z,17.63
2019-02-28T16:46:01.791Z,17.20
2019-02-28T16:48:33.401Z,20.03
2019-02-28T16:51:07.997Z,17.70
2019-02-28T16:53:38.556Z,16.20
2019-02-28T16:56:08.887Z,16.60
2019-02-28T16:58:39.041Z,17.83
2019-02-28T17:01:09.848Z,16.27
2019-02-28T17:03:41.761Z,18.97
2019-02-28T17:06:16.282Z,17.23
2019-02-28T17:09:00.203Z,18.10
2019-02-28T17:11:30.246Z,17.37
2019-02-28T17:14:01.072Z,17.80
2019-02-28T17:16:38.172Z,17.10
2019-02-28T17:19:08.599Z,17.40
2019-02-28T17:21:39.258Z,17.23
2019-02-28T17:24:12.127Z,17.70
2019-02-28T17:27:10.077Z,17.23
2019-02-28T17:30:00.465Z,17.77
2019-02-28T17:32:31.413Z,18.63
2019-02-28T17:35:04.145Z,17.53
2019-02-28T17:37:36.640Z,18.73
2019-02-28T17:40:08.196Z,17.07
2019-02-28T17:42:38.646Z,17.23
2019-02-28T17:45:21.883Z,16.50
2019-02-28T17:48:31.055Z,16.73
2019-02-28T17:51:09.661Z,16.10
2019-02-28T17:54:11.939Z,17.07
2019-02-28T17:57:27.793Z,17.10
2019-02-28T18:00:20.309Z,17.43
2019-02-28T18:03:32.227Z,17.60
2019-02-28T18:06:48.558Z,18.97
2019-02-28T18:09:41.566Z,17.67
2019-02-28T18:12:49.851Z,16.67
2019-02-28T18:15:52.218Z,17.80
2019-02-28T18:19:10.952Z,16.67
2019-02-28T18:22:20.636Z,15.47
2019-02-28T18:25:30.013Z,15.40
2019-02-28T18:28:25.377Z,16.53
2019-02-28T18:31:07.552Z,17.23
2019-02-28T18:33:41.800Z,17.17
2019-02-28T18:36:16.085Z,15.53
2019-02-28T18:38:46.490Z,16.97
2019-02-28T18:41:16.817Z,16.80
2019-02-28T18:43:46.939Z,15.95
2019-02-28T18:46:17.016Z,17.07
2019-02-28T18:48:47.369Z,17.20
2019-02-28T18:51:18.721Z,17.60
2019-02-28T18:53:48.994Z,17.43
2019-02-28T18:56:20.749Z,16.37
2019-02-28T18:58:50.965Z,16.20
2019-02-28T19:01:21.665Z,16.73
2019-02-28T19:03:51.591Z,16.17
2019-02-28T19:06:21.775Z,16.67
2019-02-28T19:08:52.328Z,16.37
2019-02-28T19:11:23.200Z,16.17
2019-02-28T19:13:53.505Z,16.30
2019-02-28T19:16:24.275Z,15.73
2019-02-28T19:18:55.040Z,17.03
2019-02-28T19:21:25.833Z,17.10
2019-02-28T19:23:55.915Z,17.27
2019-02-28T19:26:26.349Z,16.37
2019-02-28T19:28:58.348Z,20.80
2019-02-28T19:31:28.938Z,24.00
2019-02-28T19:33:59.240Z,23.50
2019-02-28T19:36:30.049Z,21.75
2019-02-28T19:39:00.725Z,22.40
2019-02-28T19:41:31.645Z,23.53
2019-02-28T19:44:01.671Z,25.70
2019-02-28T19:46:32.013Z,24.47
2019-02-28T19:49:02.356Z,24.10
2019-02-28T19:51:32.569Z,24.77
2019-02-28T19:54:03.982Z,25.70
2019-02-28T19:56:35.575Z,26.63
2019-02-28T19:59:06.616Z,28.77
2019-02-28T20:01:36.827Z,31.03
2019-02-28T20:04:09.801Z,29.60
2019-02-28T20:06:41.077Z,33.87
2019-02-28T20:09:12.294Z,40.60
2019-02-28T20:11:43.362Z,36.70
2019-02-28T20:14:14.162Z,33.17
2019-02-28T20:16:45.680Z,36.00
2019-02-28T20:19:18.107Z,42.87
2019-02-28T20:21:50.442Z,41.50
2019-02-28T20:24:20.675Z,35.10
2019-02-28T20:26:51.853Z,32.60
2019-02-28T20:29:22.283Z,30.30
2019-02-28T20:31:53.634Z,27.83
2019-02-28T20:34:24.189Z,27.20
2019-02-28T20:36:54.545Z,30.70
2019-02-28T20:39:24.689Z,28.90
2019-02-28T20:41:56.163Z,26.90
2019-02-28T20:44:27.202Z,25.83
2019-02-28T20:46:57.450Z,24.07
2019-02-28T20:49:29.042Z,21.70
2019-02-28T20:51:59.170Z,22.00
2019-02-28T20:54:30.095Z,19.13
2019-02-28T20:57:00.098Z,16.70
2019-02-28T20:59:30.517Z,16.33
2019-02-28T21:02:01.740Z,17.20
2019-02-28T21:04:31.922Z,17.40
2019-02-28T21:07:02.272Z,17.83
2019-02-28T21:09:35.308Z,17.30
2019-02-28T21:12:07.880Z,18.40
2019-02-28T21:14:37.941Z,19.90
2019-02-28T21:17:10.202Z,20.03
2019-02-28T21:19:40.494Z,19.07
2019-02-28T21:22:12.527Z,18.83
2019-02-28T21:24:42.626Z,20.00
2019-02-28T21:27:15.268Z,21.37
2019-02-28T21:29:45.795Z,22.37
2019-02-28T21:32:16.781Z,21.27
2019-02-28T21:34:47.858Z,22.93
2019-02-28T21:37:18.030Z,25.50
2019-02-28T21:39:49.721Z,26.30
2019-02-28T21:42:21.773Z,24.10
2019-02-28T21:44:53.357Z,26.60
2019-02-28T21:47:23.742Z,26.93
2019-02-28T21:49:56.736Z,27.63
2019-02-28T21:52:26.949Z,26.40
2019-02-28T21:54:56.908Z,25.70
2019-02-28T21:57:28.611Z,27.73
2019-02-28T22:00:00.577Z,25.80
2019-02-28T22:02:30.481Z,25.67
2019-02-28T22:05:00.701Z,25.47
2019-02-28T22:07:34.884Z,24.40
2019-02-28T22:10:11.870Z,24.63
2019-02-28T22:12:41.911Z,23.43
2019-02-28T22:15:15.756Z,23.87
2019-02-28T22:17:45.991Z,21.27
2019-02-28T22:20:16.155Z,24.07
2019-02-28T22:22:46.522Z,22.30
2019-02-28T22:25:18.770Z,23.37
2019-02-28T22:27:50.183Z,23.90
2019-02-28T22:30:54.535Z,22.10
2019-02-28T22:33:52.596Z,22.90
2019-02-28T22:36:38.712Z,23.50
2019-02-28T22:39:11.299Z,22.30
2019-02-28T22:41:43.251Z,20.90
2019-02-28T22:44:18.459Z,22.47
2019-02-28T22:46:48.754Z,21.77
2019-02-28T22:49:20.314Z,20.83
2019-02-28T22:51:57.438Z,21.80
2019-02-28T22:54:29.082Z,22.57
2019-02-28T22:57:00.639Z,20.07
2019-02-28T22:59:39.958Z,20.90
2019-02-28T23:02:12.529Z,19.03
2019-02-28T23:04:45.260Z,19.30
2019-02-28T23:07:17.575Z,19.67
2019-02-28T23:09:50.576Z,19.83
2019-02-28T23:12:23.203Z,17.97
2019-02-28T23:15:06.837Z,18.70
2019-02-28T23:17:37.404Z,17.70
2019-02-28T23:20:09.832Z,16.80
2019-02-28T23:22:40.057Z,18.00
2019-02-28T23:25:10.466Z,15.53
2019-02-28T23:27:41.456Z,15.87
2019-02-28T23:30:46.193Z,14.70
2019-02-28T23:33:21.452Z,15.40
2019-02-28T23:35:52.368Z,15.13
2019-02-28T23:38:24.633Z,14.47
2019-02-28T23:40:57.599Z,14.20
2019-02-28T23:43:29.143Z,13.70
2019-02-28T23:45:59.860Z,13.87
2019-02-28T23:48:32.596Z,12.83
2019-02-28T23:51:03.773Z,13.10
2019-02-28T23:53:33.762Z,10.90
2019-02-28T23:56:03.740Z,11.03
2019-02-28T23:58:33.917Z,11.03
